Terminal Aerodrome Forecast
Issued by NWS Duluth, MN

Home | Current Version | Previous Version | Text Only | Print | Product List | Glossary On
Versions: 1 2 3 4 5 6 7 8 9 10 11 12 13 14 15 16 17 18 19 20
000
FTUS43 KDLH 162336
TAFDLH
TAF
KDLH 162336Z 1700/1724 12009KT P6SM SCT150
     FM170300 17008KT P6SM FEW015 BKN150
     FM170900 18007KT 5SM BR BKN007 OVC150
     FM171100 20006KT 3SM BR BKN005
     FM171400 21006KT 6SM BR SCT004 BKN008
     FM171700 21008KT P6SM SCT008=

USA.gov is the U.S. government's official web portal to all federal, state and local government web resources and services.